Terminal Aerodrome Forecast
Issued by NWS Dodge City, KS

Home | Current Version | Previous Version | Graphics & Text | Print | Product List | Glossary Off
Versions: 1 2 3 4 5 6 7 8 9 10 11 12 13 14 15 16 17 18 19 20 21 22 23 24 25 26 27 28 29 30 31 32 33 34 35 36 37 38 39 40 41 42 43

000
FTUS43 KDDC 231617 AAB
TAFDDC
TAF AMD
KDDC 231617Z 2316/2412 09009KT 1 1/2SM BR OVC003
     FM231800 12006KT 5SM BR OVC005
     FM232000 10010KT P6SM OVC015
     FM240300 10009KT P6SM -FZDZ OVC008
     FM240600 11008KT 3SM -FZDZ OVC003=

USA.gov is the U.S. government's official web portal to all federal, state and local government web resources and services.